Time;durP1;ratioP1;P1;durP2;ratioP2;P2;SDS_P1;SDS_P2;PMS_P1;PMS_P2;Temp;Humidity;BMP_temperature;BMP_pressure;BME280_temperature;BME280_humidity;BME280_pressure;Samples;Min_cycle;Max_cycle;Signal;HPM_P1;HPM_P2
2023/08/27 00:01:24;;;;;;;10.55;7.63;;;;;;;23.15;67.64;100010.34;5036229;28;20025;-65
2023/08/27 00:03:50;;;;;;;11.38;7.45;;;;;;;22.96;69.13;100006.25;5031052;28;20498;-65
2023/08/27 00:06:15;;;;;;;9.90;8.13;;;;;;;22.89;69.22;99999.47;5041497;28;20042;-65
2023/08/27 00:08:41;;;;;;;11.25;8.10;;;;;;;22.91;69.30;99995.53;5036848;28;20025;-65
2023/08/27 00:11:06;;;;;;;9.68;8.13;;;;;;;22.99;68.64;100000.47;5028515;28;20032;-65
2023/08/27 00:13:32;;;;;;;9.18;7.97;;;;;;;23.04;68.13;99989.16;5032114;28;20079;-66
2023/08/27 00:15:58;;;;;;;10.43;7.70;;;;;;;23.06;68.10;99993.19;5035213;28;20108;-65
2023/08/27 00:18:23;;;;;;;9.90;7.78;;;;;;;23.05;68.01;99990.75;5033775;28;20037;-65
2023/08/27 00:20:49;;;;;;;9.05;7.60;;;;;;;23.14;67.03;99976.06;5029482;28;20040;-65
2023/08/27 00:23:15;;;;;;;8.60;7.70;;;;;;;23.23;66.69;99990.53;5031434;28;20037;-65
2023/08/27 00:25:43;;;;;;;11.95;8.15;;;;;;;23.35;66.00;99985.16;5037528;28;20129;-65
2023/08/27 00:28:10;;;;;;;12.18;8.23;;;;;;;23.35;66.50;99983.31;5035113;28;20033;-65
2023/08/27 00:30:36;;;;;;;8.13;7.38;;;;;;;23.29;67.14;99992.25;5037564;28;20036;-65
2023/08/27 00:33:01;;;;;;;9.95;7.60;;;;;;;23.26;68.06;99986.59;5040280;28;20033;-65
2023/08/27 00:35:27;;;;;;;8.32;7.47;;;;;;;23.16;68.60;99997.84;5037254;28;20049;-65
2023/08/27 00:37:53;;;;;;;12.27;7.80;;;;;;;23.08;69.38;99995.59;5035644;28;20044;-65
2023/08/27 00:40:18;;;;;;;10.70;7.50;;;;;;;23.02;69.26;99991.22;5030170;28;20120;-65
2023/08/27 00:42:43;;;;;;;9.00;7.13;;;;;;;22.90;70.49;99983.31;5034971;28;20029;-65
2023/08/27 00:45:09;;;;;;;8.57;7.57;;;;;;;22.85;70.60;99991.16;5032297;28;20047;-65
2023/08/27 00:47:35;;;;;;;8.40;7.47;;;;;;;22.78;71.73;99986.00;5036512;28;20504;-65
2023/08/27 00:50:02;;;;;;;8.90;7.75;;;;;;;22.73;72.23;99987.69;5025999;28;20040;-65
2023/08/27 00:52:28;;;;;;;9.23;7.65;;;;;;;22.72;72.21;99986.09;5023292;28;20234;-65
2023/08/27 00:54:55;;;;;;;8.35;7.28;;;;;;;22.75;71.68;99981.13;5033603;28;20029;-65
2023/08/27 00:57:20;;;;;;;11.55;7.72;;;;;;;22.81;70.99;99984.72;5035849;28;20022;-65
2023/08/27 00:59:47;;;;;;;10.30;8.10;;;;;;;22.83;70.34;99978.13;5040574;28;20386;-65
2023/08/27 01:02:15;;;;;;;9.07;8.25;;;;;;;22.84;70.27;99968.31;5034211;28;20033;-65
2023/08/27 01:04:40;;;;;;;10.15;8.32;;;;;;;22.76;70.58;99963.34;5033694;28;20029;-65
2023/08/27 01:07:15;;;;;;;11.77;8.38;;;;;;;22.69;70.22;99960.00;5033287;28;20043;-65
2023/08/27 01:10:04;;;;;;;10.25;7.60;;;;;;;22.72;69.67;99955.03;5034582;28;20030;-65
2023/08/27 01:13:03;;;;;;;8.88;7.95;;;;;;;22.82;67.76;99955.25;5033400;28;20116;-65
2023/08/27 01:15:29;;;;;;;8.73;6.60;;;;;;;23.00;67.59;99945.50;5031698;28;20080;-65
2023/08/27 01:17:57;;;;;;;9.18;7.53;;;;;;;23.04;67.23;99942.13;5035775;28;20048;-65
2023/08/27 01:20:23;;;;;;;10.00;7.43;;;;;;;23.05;66.93;99941.09;5034662;28;20037;-65
2023/08/27 01:22:48;;;;;;;8.27;7.28;;;;;;;23.10;66.88;99940.38;5033981;28;20029;-66
2023/08/27 01:25:19;;;;;;;9.35;8.15;;;;;;;23.10;67.08;99943.03;5033671;28;20036;-65
2023/08/27 01:27:50;;;;;;;8.93;8.02;;;;;;;23.05;68.03;99942.94;5031253;28;20044;-66
2023/08/27 01:30:31;;;;;;;8.95;7.70;;;;;;;22.88;69.91;99939.44;5027828;28;20033;-65
2023/08/27 01:33:05;;;;;;;9.05;8.18;;;;;;;22.75;70.50;99938.63;5028828;28;20064;-65
2023/08/27 01:35:32;;;;;;;10.35;8.38;;;;;;;22.74;70.60;99941.53;5027330;28;20072;-65
2023/08/27 01:37:58;;;;;;;10.55;8.38;;;;;;;22.71;71.16;99950.75;5031262;28;20048;-65
2023/08/27 01:40:26;;;;;;;11.45;7.90;;;;;;;22.65;71.53;99949.09;5033301;28;20029;-65
2023/08/27 01:42:52;;;;;;;8.45;7.65;;;;;;;22.56;73.00;99947.03;5030906;28;20116;-65
2023/08/27 01:45:18;;;;;;;8.10;7.35;;;;;;;22.46;73.48;99944.97;5038499;28;20140;-66
2023/08/27 01:47:44;;;;;;;12.30;8.65;;;;;;;22.35;74.58;99932.53;5032905;28;20443;-65
2023/08/27 01:50:09;;;;;;;9.38;8.55;;;;;;;22.24;74.68;99920.09;5013804;28;20044;-65
2023/08/27 01:52:35;;;;;;;10.23;8.30;;;;;;;22.23;75.15;99934.38;5030961;28;20029;-65
2023/08/27 01:55:03;;;;;;;9.15;8.15;;;;;;;22.22;75.11;99930.13;5032133;28;20045;-65
2023/08/27 01:57:28;;;;;;;9.32;8.40;;;;;;;22.26;74.67;99936.56;5032009;28;20033;-65
2023/08/27 01:59:54;;;;;;;9.57;7.93;;;;;;;22.25;75.02;99950.88;5032919;28;20029;-65
2023/08/27 02:02:19;;;;;;;9.23;8.20;;;;;;;22.23;74.78;99945.81;5031550;28;20098;-65
2023/08/27 02:04:45;;;;;;;8.65;7.85;;;;;;;22.27;73.68;99952.25;5032051;28;20033;-65
2023/08/27 02:07:11;;;;;;;8.95;7.82;;;;;;;22.34;73.07;99950.28;5032094;28;20034;-65
2023/08/27 02:09:36;;;;;;;8.07;7.32;;;;;;;22.37;73.55;99946.38;5025760;28;20028;-65
2023/08/27 02:12:03;;;;;;;10.35;8.82;;;;;;;22.28;74.13;99953.06;5033367;28;20521;-65
2023/08/27 02:14:29;;;;;;;10.70;8.10;;;;;;;22.21;74.48;99955.06;5032318;28;20120;-65
2023/08/27 02:16:54;;;;;;;10.02;9.00;;;;;;;22.14;75.08;99957.84;5036203;28;20131;-65
2023/08/27 02:19:21;;;;;;;9.98;8.48;;;;;;;22.08;75.61;99958.75;5032323;28;20033;-66
2023/08/27 02:21:46;;;;;;;10.05;8.20;;;;;;;22.08;76.12;99946.31;5032332;28;20404;-65
2023/08/27 02:24:12;;;;;;;9.10;8.18;;;;;;;22.07;76.24;99944.69;5034215;28;20037;-65
2023/08/27 02:26:37;;;;;;;9.63;8.35;;;;;;;22.05;76.07;99941.47;5027504;28;20033;-66
2023/08/27 02:29:02;;;;;;;9.23;8.15;;;;;;;22.07;76.13;99930.63;5033701;28;20040;-65
2023/08/27 02:31:28;;;;;;;10.35;8.48;;;;;;;22.11;75.60;99924.63;5031602;28;20077;-65
2023/08/27 02:33:53;;;;;;;9.82;8.60;;;;;;;22.21;74.18;99926.69;5031463;28;20033;-66
2023/08/27 02:36:19;;;;;;;10.60;9.02;;;;;;;22.29;73.60;99920.19;5032615;28;20061;-66
2023/08/27 02:38:44;;;;;;;9.60;8.70;;;;;;;22.34;73.23;99929.06;5032435;28;20029;-65
2023/08/27 02:41:10;;;;;;;8.95;8.00;;;;;;;22.36;72.72;99934.13;5031389;28;20037;-65
2023/08/27 02:43:35;;;;;;;9.63;8.07;;;;;;;22.41;71.98;99942.22;5029711;28;20037;-66
2023/08/27 02:46:00;;;;;;;9.70;7.90;;;;;;;22.48;71.16;99951.66;5020748;28;20034;-66
2023/08/27 02:48:26;;;;;;;10.15;7.88;;;;;;;22.50;71.11;99956.72;5032258;28;20033;-66
2023/08/27 02:50:51;;;;;;;9.00;7.68;;;;;;;22.47;71.49;99951.88;5031138;28;20120;-65
2023/08/27 02:53:17;;;;;;;8.48;7.57;;;;;;;22.41;73.08;99955.47;5027827;28;20037;-65
2023/08/27 02:55:42;;;;;;;9.18;8.30;;;;;;;22.36;73.85;99960.69;5032121;28;20029;-65
2023/08/27 02:58:08;;;;;;;10.70;8.57;;;;;;;22.31;74.36;99968.53;5032671;28;20042;-65
2023/08/27 03:00:33;;;;;;;12.05;8.57;;;;;;;22.23;75.38;99964.38;5025096;28;20034;-65
2023/08/27 03:02:58;;;;;;;9.20;8.40;;;;;;;22.16;75.75;99977.00;5028241;28;20040;-65
2023/08/27 03:05:24;;;;;;;11.00;8.75;;;;;;;22.13;75.85;99961.53;5027514;28;20050;-65
2023/08/27 03:07:49;;;;;;;9.70;8.60;;;;;;;22.14;75.77;99957.84;5018814;28;20033;-66
2023/08/27 03:10:15;;;;;;;12.15;8.77;;;;;;;22.17;75.69;99962.69;5026575;28;20044;-66
2023/08/27 03:12:40;;;;;;;14.48;8.38;;;;;;;22.18;75.51;99951.84;5021306;28;20039;-65
2023/08/27 03:15:06;;;;;;;9.23;8.20;;;;;;;22.16;75.85;99945.97;5025009;28;20030;-65
2023/08/27 03:17:32;;;;;;;8.90;8.10;;;;;;;22.14;75.98;99947.22;5028906;28;20026;-64
2023/08/27 03:19:57;;;;;;;12.30;8.15;;;;;;;22.15;75.87;99938.22;5022799;28;20575;-65
2023/08/27 03:22:23;;;;;;;11.55;9.18;;;;;;;22.16;75.84;99929.22;5024405;28;20099;-65
2023/08/27 03:24:48;;;;;;;8.98;7.80;;;;;;;22.16;74.91;99919.44;5025680;28;20026;-64
2023/08/27 03:27:14;;;;;;;9.57;8.57;;;;;;;22.20;74.66;99913.66;5030454;28;20102;-65
2023/08/27 03:29:39;;;;;;;9.45;8.52;;;;;;;22.19;74.37;99918.16;5031430;28;20036;-65
2023/08/27 03:32:05;;;;;;;11.77;8.75;;;;;;;22.24;73.65;99912.94;5026993;28;20033;-64
2023/08/27 03:34:31;;;;;;;9.43;8.27;;;;;;;22.28;73.70;99915.91;5029119;28;20025;-65
2023/08/27 03:36:57;;;;;;;9.77;8.35;;;;;;;22.31;73.58;99910.16;5028482;28;20048;-65
2023/08/27 03:39:22;;;;;;;10.10;8.52;;;;;;;22.28;73.93;99927.34;5032755;28;20040;-65
2023/08/27 03:41:48;;;;;;;9.82;8.80;;;;;;;22.25;74.05;99921.69;5019387;28;20116;-65
2023/08/27 03:44:13;;;;;;;9.75;8.00;;;;;;;22.20;74.59;99930.38;5025752;28;20389;-65
2023/08/27 03:46:42;;;;;;;12.65;8.77;;;;;;;22.20;74.44;99932.22;5026075;28;20392;-65
2023/08/27 03:49:07;;;;;;;10.77;8.85;;;;;;;22.21;74.50;99931.19;5026357;28;20079;-65
2023/08/27 03:51:33;;;;;;;9.00;8.10;;;;;;;22.26;74.67;99928.63;5023998;28;20030;-64
2023/08/27 03:53:59;;;;;;;9.07;8.07;;;;;;;22.27;74.94;99919.63;5022248;28;20385;-65
2023/08/27 03:56:24;;;;;;;9.88;8.43;;;;;;;22.28;75.24;99922.03;5022910;28;20082;-65
2023/08/27 03:58:50;;;;;;;9.40;8.52;;;;;;;22.26;74.97;99924.13;5023951;28;20029;-64
2023/08/27 04:01:16;;;;;;;13.82;8.60;;;;;;;22.22;74.86;99922.16;5017487;28;20083;-65
2023/08/27 04:03:42;;;;;;;10.35;8.02;;;;;;;22.19;75.32;99923.47;5030204;28;20040;-64
2023/08/27 04:06:08;;;;;;;10.30;9.02;;;;;;;22.18;74.96;99919.19;5030846;28;20038;-66
2023/08/27 04:08:34;;;;;;;11.35;8.30;;;;;;;22.21;75.38;99923.22;5029437;28;20044;-65
2023/08/27 04:11:01;;;;;;;9.70;8.40;;;;;;;22.23;74.96;99934.38;5029024;28;20034;-65
2023/08/27 04:13:27;;;;;;;9.18;8.27;;;;;;;22.29;74.72;99930.81;5033073;28;20386;-65
2023/08/27 04:16:02;;;;;;;10.23;8.50;;;;;;;22.31;75.15;99942.81;5036299;28;20033;-65
2023/08/27 04:18:27;;;;;;;10.60;8.50;;;;;;;22.27;75.05;99951.47;5029496;28;20042;-65
2023/08/27 04:20:54;;;;;;;9.13;8.13;;;;;;;22.22;75.19;99951.34;5023503;28;20036;-65
2023/08/27 04:23:19;;;;;;;9.55;8.43;;;;;;;22.17;76.09;99954.72;5025278;28;20378;-65
2023/08/27 04:25:45;;;;;;;11.93;8.45;;;;;;;22.13;76.25;99951.72;5026968;28;20033;-65
2023/08/27 04:28:10;;;;;;;9.38;8.10;;;;;;;22.07;76.71;99954.50;5034633;28;20107;-65
2023/08/27 04:30:36;;;;;;;13.07;9.07;;;;;;;22.03;76.73;99956.00;5026565;28;20038;-65
2023/08/27 04:33:02;;;;;;;10.00;8.40;;;;;;;21.99;77.29;99944.19;5023770;28;20508;-65
2023/08/27 04:35:28;;;;;;;10.52;8.27;;;;;;;21.96;77.21;99940.16;5020873;28;20049;-64
2023/08/27 04:37:53;;;;;;;9.93;8.55;;;;;;;21.92;77.16;99940.84;5023607;28;20037;-65
2023/08/27 04:40:18;;;;;;;11.90;8.43;;;;;;;21.96;76.99;99940.16;5024647;28;20524;-65
2023/08/27 04:42:44;;;;;;;9.50;8.50;;;;;;;22.02;76.28;99935.81;5019149;28;20036;-65
2023/08/27 04:45:10;;;;;;;10.75;8.13;;;;;;;22.07;75.62;99939.38;5026879;28;20045;-64
2023/08/27 04:47:35;;;;;;;9.68;7.88;;;;;;;22.06;76.04;99940.44;5030307;28;20029;-65
2023/08/27 04:50:01;;;;;;;9.57;8.02;;;;;;;22.05;76.18;99933.50;5029262;28;20033;-65
2023/08/27 04:52:26;;;;;;;10.63;8.32;;;;;;;22.08;76.11;99941.00;5028793;28;20029;-66
2023/08/27 04:54:52;;;;;;;13.07;9.20;;;;;;;22.09;76.45;99947.13;5030922;28;20393;-66
2023/08/27 04:57:17;;;;;;;9.02;8.02;;;;;;;22.11;76.25;99953.00;5033512;28;20033;-66
2023/08/27 04:59:42;;;;;;;10.60;8.40;;;;;;;22.11;76.54;99964.41;5025328;28;20040;-66
2023/08/27 05:02:08;;;;;;;9.80;8.27;;;;;;;22.13;76.64;99967.66;5023779;28;20792;-66
2023/08/27 05:04:33;;;;;;;9.43;8.50;;;;;;;22.17;76.77;99974.09;5022943;28;20038;-66
2023/08/27 05:06:59;;;;;;;9.52;8.02;;;;;;;22.16;76.97;99975.16;5020537;28;20044;-66
2023/08/27 05:09:26;;;;;;;11.60;8.52;;;;;;;22.15;77.57;99978.84;5020125;28;20473;-66
2023/08/27 05:11:51;;;;;;;8.63;7.82;;;;;;;22.16;77.55;99972.50;5024635;28;20032;-65
2023/08/27 05:14:16;;;;;;;10.23;8.65;;;;;;;22.18;77.61;99967.75;5031751;28;20511;-66
2023/08/27 05:16:42;;;;;;;9.05;8.13;;;;;;;22.23;77.46;99974.19;5027772;28;20044;-67
2023/08/27 05:19:08;;;;;;;11.75;9.50;;;;;;;22.28;77.07;99971.66;5028257;28;20034;-66
2023/08/27 05:21:33;;;;;;;8.88;7.97;;;;;;;22.33;77.22;99967.25;5031173;28;20032;-65
2023/08/27 05:23:59;;;;;;;10.57;8.35;;;;;;;22.40;76.59;99970.59;5042006;28;20128;-64
2023/08/27 05:26:25;;;;;;;8.68;7.80;;;;;;;22.47;76.54;99968.63;5025331;28;20063;-65
2023/08/27 05:28:50;;;;;;;8.95;7.90;;;;;;;22.53;76.09;99961.56;5032438;28;20033;-64
2023/08/27 05:31:15;;;;;;;10.85;8.90;;;;;;;22.51;76.34;99963.66;5030937;28;20037;-65
2023/08/27 05:33:41;;;;;;;12.57;8.90;;;;;;;22.54;76.34;99968.50;5031326;28;20137;-65
2023/08/27 05:36:06;;;;;;;10.88;8.65;;;;;;;22.54;75.84;99959.72;5031777;28;20069;-65
2023/08/27 05:38:33;;;;;;;9.57;8.48;;;;;;;22.58;76.04;99960.88;5031923;28;20049;-65
2023/08/27 05:40:58;;;;;;;10.25;8.52;;;;;;;22.61;75.83;99963.88;5032737;28;20033;-64
2023/08/27 05:43:24;;;;;;;11.65;8.80;;;;;;;22.62;75.77;99954.84;5033358;28;20485;-64
2023/08/27 05:45:50;;;;;;;10.27;8.30;;;;;;;22.62;75.90;99949.53;5025235;28;20116;-66
2023/08/27 05:48:15;;;;;;;11.07;8.07;;;;;;;22.66;75.60;99942.72;5029931;28;20362;-66
2023/08/27 05:50:40;;;;;;;8.00;7.18;;;;;;;22.73;75.86;99948.69;5030011;28;20033;-66
2023/08/27 05:53:06;;;;;;;10.10;8.32;;;;;;;22.78;75.22;99951.47;5028485;28;20037;-65
2023/08/27 05:55:32;;;;;;;10.15;7.85;;;;;;;22.87;75.22;99945.78;5030189;28;20119;-66
2023/08/27 05:57:57;;;;;;;8.75;7.85;;;;;;;23.02;74.61;99932.78;5032420;28;20038;-66
2023/08/27 06:00:23;;;;;;;10.38;7.95;;;;;;;23.08;74.40;99926.53;5027057;28;20107;-66
2023/08/27 06:02:48;;;;;;;9.15;8.25;;;;;;;23.18;74.10;99916.84;5031960;28;20038;-65
2023/08/27 06:05:14;;;;;;;9.20;8.30;;;;;;;23.29;73.65;99912.50;5022133;28;20038;-66
2023/08/27 06:07:39;;;;;;;8.23;7.38;;;;;;;23.45;73.22;99916.22;5023568;28;20076;-66
2023/08/27 06:10:05;;;;;;;9.10;7.18;;;;;;;23.58;72.81;99923.13;5032136;28;20071;-65
2023/08/27 06:12:31;;;;;;;8.15;7.32;;;;;;;23.65;73.21;99921.06;5032822;28;20072;-66
2023/08/27 06:14:56;;;;;;;7.95;7.13;;;;;;;23.72;72.54;99927.03;5029404;28;20366;-66
2023/08/27 06:17:22;;;;;;;12.38;7.68;;;;;;;23.76;72.82;99922.84;5028498;28;20079;-65
2023/08/27 06:19:47;;;;;;;8.10;7.30;;;;;;;23.82;72.77;99922.66;5032617;28;20512;-66
2023/08/27 06:22:12;;;;;;;10.23;7.50;;;;;;;23.93;72.62;99928.94;5027503;28;20029;-66
2023/08/27 06:24:38;;;;;;;9.15;8.15;;;;;;;24.06;72.82;99933.13;5032494;28;20044;-66
2023/08/27 06:27:03;;;;;;;8.45;7.53;;;;;;;24.15;72.30;99927.09;5031893;28;20033;-66
2023/08/27 06:29:29;;;;;;;8.57;7.57;;;;;;;24.26;72.25;99928.06;5032329;28;20496;-66
2023/08/27 06:31:55;;;;;;;10.85;7.13;;;;;;;24.36;71.57;99938.03;5023015;28;20029;-66
2023/08/27 06:34:20;;;;;;;8.30;7.50;;;;;;;24.41;71.52;99932.78;5024987;28;20033;-66
2023/08/27 06:36:46;;;;;;;7.93;7.13;;;;;;;24.42;71.59;99937.06;5027026;28;20053;-66
2023/08/27 06:39:11;;;;;;;8.88;7.95;;;;;;;24.48;71.38;99938.72;5028765;28;20088;-66
2023/08/27 06:41:37;;;;;;;8.77;7.47;;;;;;;24.52;71.19;99945.19;5030394;28;20112;-66
2023/08/27 06:44:03;;;;;;;8.75;7.20;;;;;;;24.61;71.05;99946.31;5027358;28;20029;-66
2023/08/27 06:46:28;;;;;;;8.43;7.68;;;;;;;24.67;70.76;99952.50;5029397;28;20069;-65
2023/08/27 06:48:53;;;;;;;11.50;7.30;;;;;;;24.86;70.45;99947.66;5031579;28;20044;-65
2023/08/27 06:51:19;;;;;;;8.18;7.45;;;;;;;24.86;70.07;99947.66;5027400;28;20037;-66
2023/08/27 06:53:44;;;;;;;8.43;7.47;;;;;;;24.86;70.09;99943.16;5026226;28;20033;-66
2023/08/27 06:56:10;;;;;;;9.60;7.50;;;;;;;24.90;69.68;99949.59;5016652;28;20026;-66
2023/08/27 06:58:35;;;;;;;13.15;7.85;;;;;;;24.87;69.53;99949.28;5026656;28;20136;-66
2023/08/27 07:01:04;;;;;;;9.38;7.18;;;;;;;24.94;69.36;99940.03;5025667;28;20048;-66
2023/08/27 07:03:31;;;;;;;11.20;7.50;;;;;;;25.11;68.85;99939.94;5027020;28;20041;-67
2023/08/27 07:05:56;;;;;;;8.38;7.53;;;;;;;25.21;68.66;99937.38;5029791;28;20171;-66
2023/08/27 07:08:22;;;;;;;7.85;7.05;;;;;;;25.37;68.35;99927.66;5021298;28;20113;-66
2023/08/27 07:10:48;;;;;;;8.27;7.13;;;;;;;25.52;67.64;99924.31;5025770;28;20036;-66
2023/08/27 07:13:13;;;;;;;13.70;6.93;;;;;;;25.50;68.02;99921.91;5027395;28;20033;-67
2023/08/27 07:15:39;;;;;;;9.07;7.38;;;;;;;25.52;68.43;99922.41;5028766;28;20037;-67
2023/08/27 07:18:04;;;;;;;9.15;6.82;;;;;;;25.50;68.40;99905.88;5031006;28;20021;-67
2023/08/27 07:20:29;;;;;;;11.07;7.30;;;;;;;25.59;68.91;99919.53;5026378;28;20148;-67
2023/08/27 07:22:55;;;;;;;8.25;6.93;;;;;;;25.75;68.64;99921.28;5027170;28;20060;-66
2023/08/27 07:25:23;;;;;;;8.60;7.65;;;;;;;25.88;68.39;99912.03;5030060;28;20033;-67
2023/08/27 07:27:48;;;;;;;9.15;8.00;;;;;;;25.98;67.88;99922.75;5028616;28;20044;-66
2023/08/27 07:30:14;;;;;;;12.93;7.93;;;;;;;26.16;67.53;99908.16;5027289;28;20033;-66
2023/08/27 07:32:39;;;;;;;8.80;7.40;;;;;;;26.37;66.81;99916.03;5030077;28;20030;-67
2023/08/27 07:35:05;;;;;;;8.35;7.30;;;;;;;26.56;66.85;99905.66;5030721;28;20038;-67
2023/08/27 07:37:30;;;;;;;7.68;6.88;;;;;;;26.71;66.55;99912.91;5029409;28;20025;-66
2023/08/27 07:39:56;;;;;;;8.13;7.43;;;;;;;26.84;65.69;99911.59;5023021;28;20043;-66
2023/08/27 07:42:21;;;;;;;10.18;7.28;;;;;;;26.91;65.64;99899.59;5029901;28;20033;-66
2023/08/27 07:44:47;;;;;;;7.57;6.85;;;;;;;27.03;65.83;99896.66;5024152;28;20033;-66
2023/08/27 07:47:13;;;;;;;11.68;7.22;;;;;;;27.13;65.62;99904.69;5020087;28;20036;-66
2023/08/27 07:49:38;;;;;;;10.98;7.95;;;;;;;26.98;65.66;99918.84;5030388;28;20044;-66
2023/08/27 07:52:04;;;;;;;8.35;7.55;;;;;;;27.02;66.25;99927.94;5028434;28;20041;-66
2023/08/27 07:54:29;;;;;;;9.95;8.55;;;;;;;27.03;65.62;99934.09;5021951;28;20374;-66
2023/08/27 07:56:55;;;;;;;9.60;8.10;;;;;;;27.01;65.70;99926.34;5027835;28;20029;-66
2023/08/27 07:59:20;;;;;;;8.52;6.95;;;;;;;27.11;64.99;99922.88;5026748;28;20037;-66
2023/08/27 08:01:46;;;;;;;9.80;7.13;;;;;;;27.24;65.04;99933.06;5028764;28;20033;-66
2023/08/27 08:04:11;;;;;;;7.32;6.65;;;;;;;27.05;65.09;99934.63;5030573;28;20026;-66
2023/08/27 08:06:37;;;;;;;12.05;7.60;;;;;;;26.99;65.44;99933.03;5029474;28;20444;-66
2023/08/27 08:09:02;;;;;;;10.38;6.93;;;;;;;27.18;65.71;99936.78;5025576;28;20048;-66
2023/08/27 08:11:28;;;;;;;12.07;7.85;;;;;;;27.28;64.80;99936.00;5032270;28;20044;-66
2023/08/27 08:13:53;;;;;;;8.02;7.22;;;;;;;27.30;65.15;99926.66;5030166;28;20424;-66
2023/08/27 08:16:20;;;;;;;9.40;7.25;;;;;;;27.29;65.50;99925.03;5030371;28;20037;-66
2023/08/27 08:18:46;;;;;;;8.52;7.65;;;;;;;27.31;65.21;99924.78;5029077;28;20500;-66
2023/08/27 08:21:11;;;;;;;8.00;7.13;;;;;;;27.33;64.90;99933.34;5029921;28;20038;-66
2023/08/27 08:23:37;;;;;;;10.07;7.55;;;;;;;27.36;64.98;99928.25;5032681;28;20038;-66
2023/08/27 08:26:04;;;;;;;11.13;7.38;;;;;;;27.34;65.36;99924.25;5031958;28;20037;-66
2023/08/27 08:28:30;;;;;;;8.68;7.22;;;;;;;27.19;64.98;99914.34;5033457;28;20477;-65
2023/08/27 08:30:55;;;;;;;7.22;6.63;;;;;;;27.06;65.02;99914.84;5028812;28;20033;-66
2023/08/27 08:33:21;;;;;;;9.65;7.45;;;;;;;27.22;65.06;99908.44;5027908;28;20033;-66
2023/08/27 08:35:47;;;;;;;7.90;6.85;;;;;;;27.37;64.56;99902.31;5026613;28;20080;-66
2023/08/27 08:38:12;;;;;;;9.02;7.30;;;;;;;27.47;66.08;99910.28;5032138;28;20091;-66
2023/08/27 08:40:46;;;;;;;11.50;7.35;;;;;;;27.58;66.51;99919.13;5033540;28;20049;-66
2023/08/27 08:43:37;;;;;;;7.45;6.75;;;;;;;27.74;65.24;99907.38;5032260;28;20043;-66
2023/08/27 08:46:04;;;;;;;10.82;7.88;;;;;;;27.95;64.58;99903.53;5029979;28;20375;-66
2023/08/27 08:48:40;;;;;;;11.15;7.30;;;;;;;28.18;63.95;99902.13;5034555;28;20091;-69
2023/08/27 08:51:07;;;;;;;7.90;7.13;;;;;;;28.40;64.00;99901.78;5026549;28;20118;-69
2023/08/27 08:53:39;;;;;;;8.75;6.30;;;;;;;28.60;63.05;99901.69;5023413;28;20385;-68
2023/08/27 08:56:07;;;;;;;16.40;6.88;;;;;;;28.74;63.45;99891.16;5030315;28;20053;-68
2023/08/27 08:58:37;;;;;;;8.05;6.47;;;;;;;28.93;64.15;99892.09;5034161;28;20385;-68
2023/08/27 09:01:06;;;;;;;8.73;6.72;;;;;;;29.02;64.13;99878.91;5029837;28;20061;-69
2023/08/27 09:03:34;;;;;;;9.70;5.97;;;;;;;29.00;63.68;99871.13;5033049;28;20044;-70
2023/08/27 09:06:01;;;;;;;12.38;7.00;;;;;;;29.21;63.29;99871.78;5033832;28;20065;-69
2023/08/27 09:08:28;;;;;;;7.07;6.38;;;;;;;29.31;62.99;99879.72;5023434;28;20116;-69
2023/08/27 09:10:53;;;;;;;9.98;7.47;;;;;;;29.29;62.82;99878.44;5030689;28;20069;-69
2023/08/27 09:13:20;;;;;;;9.60;6.65;;;;;;;29.38;62.79;99882.88;5034078;28;20486;-69
2023/08/27 09:15:50;;;;;;;8.95;6.18;;;;;;;29.40;62.09;99879.91;5028516;28;20094;-69
2023/08/27 09:18:16;;;;;;;10.48;6.72;;;;;;;29.26;61.84;99879.78;5030068;28;20029;-68
2023/08/27 09:20:44;;;;;;;11.85;7.13;;;;;;;29.19;61.68;99884.69;5034050;28;20041;-68
2023/08/27 09:23:11;;;;;;;7.43;6.70;;;;;;;29.18;61.96;99882.28;5026472;28;20037;-69
2023/08/27 09:25:38;;;;;;;7.22;6.53;;;;;;;28.95;62.05;99868.50;5026129;28;20102;-68
2023/08/27 09:28:04;;;;;;;7.88;7.10;;;;;;;28.86;61.98;99874.72;5032950;28;20025;-70
2023/08/27 09:30:30;;;;;;;11.15;7.03;;;;;;;29.05;61.44;99881.84;5030997;28;20377;-69
2023/08/27 09:32:56;;;;;;;6.65;6.00;;;;;;;29.19;60.65;99873.94;5030303;28;20060;-68
2023/08/27 09:35:21;;;;;;;11.10;5.60;;;;;;;29.28;59.93;99864.22;5024805;28;20049;-69
2023/08/27 09:37:47;;;;;;;8.90;7.00;;;;;;;29.29;60.70;99862.31;5030377;28;20026;-69
2023/08/27 09:40:16;;;;;;;8.93;5.65;;;;;;;29.30;60.32;99871.97;5029765;28;20029;-69
2023/08/27 09:42:43;;;;;;;6.80;5.95;;;;;;;29.39;59.78;99859.53;5027093;28;20030;-69
2023/08/27 09:45:08;;;;;;;9.15;5.97;;;;;;;29.56;59.95;99861.81;5031626;28;20072;-68
2023/08/27 09:47:36;;;;;;;9.20;6.07;;;;;;;29.65;59.61;99860.13;5028857;28;20053;-68
2023/08/27 09:50:06;;;;;;;6.72;6.05;;;;;;;29.52;59.36;99860.78;5028201;28;20030;-69
2023/08/27 09:52:32;;;;;;;9.02;6.55;;;;;;;29.47;59.43;99861.63;5026960;28;20048;-69
2023/08/27 09:54:58;;;;;;;6.82;6.22;;;;;;;29.48;59.36;99859.75;5027644;28;20076;-69
2023/08/27 09:57:24;;;;;;;8.88;6.22;;;;;;;29.42;59.44;99852.81;5029851;28;20025;-69
2023/08/27 09:59:50;;;;;;;8.52;6.28;;;;;;;29.50;60.10;99857.56;5032350;28;20477;-69
2023/08/27 10:02:16;;;;;;;11.23;6.20;;;;;;;29.39;60.48;99849.59;5029733;28;20048;-69
2023/08/27 10:04:59;;;;;;;8.98;6.18;;;;;;;29.31;61.32;99852.88;5028242;28;20096;-70
2023/08/27 10:07:24;;;;;;;6.60;5.57;;;;;;;29.29;60.72;99856.97;5030562;28;20033;-69
2023/08/27 10:09:51;;;;;;;6.47;5.88;;;;;;;29.34;60.68;99854.22;5030550;28;20037;-69
2023/08/27 10:12:17;;;;;;;6.60;5.88;;;;;;;29.11;61.05;99861.13;5028543;28;20120;-69
2023/08/27 10:14:44;;;;;;;6.95;6.25;;;;;;;29.11;61.94;99850.41;5029995;28;20025;-68
2023/08/27 10:17:13;;;;;;;6.88;6.28;;;;;;;29.22;62.78;99862.66;5027004;28;20108;-69
2023/08/27 10:19:40;;;;;;;7.88;6.47;;;;;;;29.20;63.25;99859.44;5032531;28;20477;-68
2023/08/27 10:22:06;;;;;;;14.63;8.27;;;;;;;29.10;63.86;99858.72;5028480;28;20500;-69
2023/08/27 10:24:33;;;;;;;8.77;7.18;;;;;;;29.11;64.32;99854.97;5031382;28;20045;-69
2023/08/27 10:27:06;;;;;;;6.82;6.18;;;;;;;29.13;64.01;99863.53;5021076;28;20092;-70
2023/08/27 10:29:33;;;;;;;6.43;5.30;;;;;;;29.24;62.97;99862.38;5032729;28;20037;-68
2023/08/27 10:31:59;;;;;;;11.18;5.40;;;;;;;29.32;61.03;99873.28;5029240;28;20498;-69
2023/08/27 10:34:28;;;;;;;7.47;5.45;;;;;;;29.39;59.87;99870.25;5029949;28;20041;-68
2023/08/27 10:36:56;;;;;;;8.85;5.07;;;;;;;29.34;59.21;99873.78;5028212;28;20046;-70
2023/08/27 10:39:25;;;;;;;8.18;5.32;;;;;;;29.38;59.32;99874.03;5030443;28;20067;-69
2023/08/27 10:41:50;;;;;;;4.75;4.30;;;;;;;29.40;58.62;99874.53;5025755;28;20393;-70
2023/08/27 10:44:21;;;;;;;5.05;4.53;;;;;;;29.46;57.90;99878.81;5032221;28;20030;-69
2023/08/27 10:47:06;;;;;;;6.65;5.00;;;;;;;29.36;58.32;99874.31;5029579;28;20030;-69
2023/08/27 10:49:37;;;;;;;7.55;5.15;;;;;;;29.40;59.45;99883.41;5023677;28;20076;-69
2023/08/27 10:52:25;;;;;;;6.10;5.45;;;;;;;29.38;58.46;99866.78;5023681;28;20034;-69
2023/08/27 10:54:59;;;;;;;6.15;4.95;;;;;;;29.32;59.54;99857.16;5026890;28;20036;-70
2023/08/27 10:57:24;;;;;;;8.52;5.25;;;;;;;29.44;58.71;99856.03;5025178;28;20040;-68
2023/08/27 10:59:53;;;;;;;7.80;6.25;;;;;;;29.48;58.53;99849.00;5021924;28;20029;-68
2023/08/27 11:02:19;;;;;;;6.57;5.47;;;;;;;29.43;58.86;99841.00;5028078;28;20102;-69
2023/08/27 11:04:54;;;;;;;6.85;5.13;;;;;;;29.44;59.34;99850.66;5029187;28;20033;-68
2023/08/27 11:07:22;;;;;;;5.97;4.95;;;;;;;29.48;59.52;99846.31;5026013;28;20037;-69
2023/08/27 11:09:54;;;;;;;7.88;5.90;;;;;;;29.38;59.21;99850.69;5028252;28;20090;-69
2023/08/27 11:12:40;;;;;;;7.45;5.43;;;;;;;29.46;59.48;99859.22;5028153;28;20029;-69
2023/08/27 11:15:15;;;;;;;9.13;5.60;;;;;;;29.40;59.11;99853.88;5028566;28;20071;-69
2023/08/27 11:17:41;;;;;;;13.20;5.28;;;;;;;29.52;59.19;99850.84;5025092;28;20036;-70
2023/08/27 11:20:27;;;;;;;8.73;5.25;;;;;;;29.65;58.60;99860.13;5025063;28;20445;-68
2023/08/27 11:23:01;;;;;;;5.82;5.22;;;;;;;29.71;58.29;99848.22;5026108;28;20087;-69
2023/08/27 11:25:31;;;;;;;7.57;5.38;;;;;;;29.60;58.78;99852.09;5029127;28;20091;-69
2023/08/27 11:28:01;;;;;;;6.18;5.38;;;;;;;29.54;59.26;99846.00;5031120;28;20111;-68
2023/08/27 11:30:27;;;;;;;8.70;5.70;;;;;;;29.58;59.44;99838.97;5024638;28;20045;-67